Time;durP1;ratioP1;P1;durP2;ratioP2;P2;SDS_P1;SDS_P2;PMS_P1;PMS_P2;Temp;Humidity;BMP_temperature;BMP_pressure;BME280_temperature;BME280_humidity;BME280_pressure;Samples;Min_cycle;Max_cycle;Signal;HPM_P1;HPM_P2
2023/06/21 00:02:19;;;;;;;21.38;19.20;;;;;;;21.19;95.14;101246.41;5074317;28;20706;-66
2023/06/21 00:04:44;;;;;;;21.10;18.80;;;;;;;21.11;95.44;101245.81;5073361;28;20394;-67
2023/06/21 00:07:10;;;;;;;22.77;20.25;;;;;;;21.10;95.58;101244.16;5071862;28;20032;-66
2023/06/21 00:09:36;;;;;;;20.27;18.17;;;;;;;21.09;95.66;101239.78;5073560;28;20036;-66
2023/06/21 00:12:01;;;;;;;21.13;18.80;;;;;;;21.08;95.79;101253.72;5073373;28;20028;-66
2023/06/21 00:14:27;;;;;;;19.30;17.13;;;;;;;21.05;95.54;101244.09;5079008;28;20024;-66
2023/06/21 00:16:52;;;;;;;19.50;17.50;;;;;;;21.07;95.69;101246.59;5077372;28;20074;-66
2023/06/21 00:19:18;;;;;;;18.27;16.25;;;;;;;21.11;95.71;101242.25;5074510;28;20020;-66
2023/06/21 00:21:44;;;;;;;17.42;15.68;;;;;;;21.16;95.72;101247.78;5073899;28;20017;-66
2023/06/21 00:24:09;;;;;;;17.88;15.88;;;;;;;21.20;95.40;101246.19;5073028;28;20012;-66
2023/06/21 00:26:35;;;;;;;18.10;16.20;;;;;;;21.21;95.43;101245.09;5072555;28;20024;-66
2023/06/21 00:29:00;;;;;;;16.83;15.18;;;;;;;21.20;95.35;101246.19;5075370;28;20025;-66
2023/06/21 00:31:26;;;;;;;18.05;15.55;;;;;;;21.20;95.31;101240.69;5073782;28;20028;-66
2023/06/21 00:33:51;;;;;;;16.73;14.88;;;;;;;21.20;95.19;101250.84;5074412;28;20128;-66
2023/06/21 00:36:17;;;;;;;17.13;15.38;;;;;;;21.17;94.97;101248.59;5074521;28;20483;-66
2023/06/21 00:38:42;;;;;;;16.55;14.85;;;;;;;21.14;94.89;101251.88;5075558;28;20036;-66
2023/06/21 00:41:08;;;;;;;17.70;14.63;;;;;;;21.13;94.77;101239.28;5075951;28;20021;-66
2023/06/21 00:43:34;;;;;;;15.93;13.77;;;;;;;21.11;94.57;101254.03;5074663;28;20033;-66
2023/06/21 00:46:00;;;;;;;17.23;14.02;;;;;;;21.10;94.63;101249.63;5038120;28;20049;-66
2023/06/21 00:48:29;;;;;;;16.98;14.55;;;;;;;21.06;94.56;101253.97;5072241;28;20028;-66
2023/06/21 00:50:55;;;;;;;16.13;14.43;;;;;;;21.03;94.47;101246.28;5074364;28;20578;-66
2023/06/21 00:53:23;;;;;;;14.82;13.10;;;;;;;21.03;94.47;101249.03;5077844;28;20368;-66
2023/06/21 00:55:48;;;;;;;14.88;13.38;;;;;;;21.01;94.58;101237.50;5081727;28;20017;-66
2023/06/21 00:58:14;;;;;;;15.43;13.82;;;;;;;20.99;94.34;101236.09;5082867;28;20025;-66
2023/06/21 01:00:41;;;;;;;15.63;13.65;;;;;;;20.97;94.54;101235.56;5082660;28;20024;-66
2023/06/21 01:03:07;;;;;;;15.68;14.18;;;;;;;20.89;94.51;101231.34;5064672;28;20131;-66
2023/06/21 01:05:34;;;;;;;18.13;14.60;;;;;;;20.80;94.60;101227.44;5080724;28;20111;-65
2023/06/21 01:08:18;;;;;;;16.73;15.02;;;;;;;20.72;94.48;101225.16;5080768;28;20048;-66
2023/06/21 01:11:11;;;;;;;17.08;15.35;;;;;;;20.66;95.02;101229.72;5081528;28;20021;-66
2023/06/21 01:13:40;;;;;;;17.75;15.90;;;;;;;20.59;95.38;101216.25;5085546;28;20028;-67
2023/06/21 01:16:11;;;;;;;19.10;15.40;;;;;;;20.60;95.44;101217.09;5080798;28;20123;-66
2023/06/21 01:18:38;;;;;;;17.08;14.93;;;;;;;20.55;95.41;101208.84;5082299;28;20021;-67
2023/06/21 01:21:05;;;;;;;17.30;15.35;;;;;;;20.50;95.56;101212.31;5082122;28;20034;-65
2023/06/21 01:24:00;;;;;;;18.40;16.20;;;;;;;20.48;95.69;101209.00;5082278;28;20182;-66
2023/06/21 01:26:53;;;;;;;19.52;17.42;;;;;;;20.50;95.89;101201.38;5072302;28;20574;-66
2023/06/21 01:29:37;;;;;;;16.92;15.05;;;;;;;20.48;95.61;101202.72;5081776;28;20076;-67
2023/06/21 01:32:05;;;;;;;18.25;15.65;;;;;;;20.36;95.80;101200.94;5081913;28;20028;-66
2023/06/21 01:34:32;;;;;;;18.63;16.73;;;;;;;20.31;96.06;101197.31;5082445;28;20391;-66
2023/06/21 01:36:58;;;;;;;19.30;17.30;;;;;;;20.30;96.48;101196.50;5082075;28;20028;-66
2023/06/21 01:39:30;;;;;;;19.00;17.10;;;;;;;20.31;96.75;101191.84;5080411;28;20101;-65
2023/06/21 01:41:55;;;;;;;18.38;16.40;;;;;;;20.27;96.52;101193.44;5080924;28;20069;-65
2023/06/21 01:44:21;;;;;;;18.20;16.38;;;;;;;20.21;96.92;101191.72;5082106;28;20096;-65
2023/06/21 01:46:51;;;;;;;22.73;19.00;;;;;;;20.13;98.29;101192.97;5082305;28;20071;-65
2023/06/21 01:49:18;;;;;;;21.92;19.63;;;;;;;20.24;98.15;101186.56;5080305;28;20056;-65
2023/06/21 01:51:44;;;;;;;22.58;19.70;;;;;;;20.29;98.35;101174.88;5081431;28;20115;-66
2023/06/21 01:54:10;;;;;;;22.25;19.88;;;;;;;20.33;99.15;101167.81;5079083;28;20032;-65
2023/06/21 01:56:37;;;;;;;23.58;20.23;;;;;;;20.24;99.30;101152.97;5079969;28;20020;-66
2023/06/21 01:59:03;;;;;;;21.70;19.33;;;;;;;20.31;99.68;101161.78;5064280;28;20036;-66
2023/06/21 02:01:31;;;;;;;21.98;19.63;;;;;;;20.26;100.00;101153.50;5082161;28;20029;-66
2023/06/21 02:04:00;;;;;;;22.83;19.02;;;;;;;20.37;100.00;101168.97;5080379;28;20059;-66
2023/06/21 02:06:30;;;;;;;21.65;19.33;;;;;;;20.28;100.00;101148.63;5078671;28;20052;-66
2023/06/21 02:09:00;;;;;;;21.23;19.08;;;;;;;20.34;100.00;101159.38;5078357;28;20035;-65
2023/06/21 02:11:28;;;;;;;21.35;19.08;;;;;;;20.33;100.00;101156.88;5076664;28;20054;-66
2023/06/21 02:13:54;;;;;;;20.90;18.70;;;;;;;20.32;100.00;101160.69;5062002;28;20068;-66
2023/06/21 02:16:27;;;;;;;20.83;18.67;;;;;;;20.35;100.00;101157.44;5076811;28;20028;-66
2023/06/21 02:18:52;;;;;;;20.20;17.73;;;;;;;20.33;100.00;101159.59;5078069;28;20037;-66
2023/06/21 02:21:19;;;;;;;18.85;17.00;;;;;;;20.28;100.00;101157.66;5078338;28;20216;-66
2023/06/21 02:23:44;;;;;;;19.55;17.40;;;;;;;20.28;100.00;101157.66;5076434;28;20032;-65
2023/06/21 02:26:10;;;;;;;18.80;16.98;;;;;;;20.28;100.00;101152.19;5076824;28;20399;-65
2023/06/21 02:28:36;;;;;;;18.58;16.63;;;;;;;20.25;100.00;101154.59;5076698;28;20221;-66
2023/06/21 02:31:01;;;;;;;18.45;16.60;;;;;;;20.26;100.00;101146.13;5077372;28;20032;-65
2023/06/21 02:33:27;;;;;;;17.98;16.25;;;;;;;20.26;100.00;101151.59;5077214;28;20059;-66
2023/06/21 02:35:52;;;;;;;17.73;15.82;;;;;;;20.29;99.64;101140.16;5078068;28;20028;-66
2023/06/21 02:38:19;;;;;;;17.08;15.38;;;;;;;20.38;99.08;101140.53;5078108;28;20033;-66
2023/06/21 02:40:45;;;;;;;18.77;16.70;;;;;;;20.33;98.34;101108.53;5078083;28;20024;-65
2023/06/21 02:43:10;;;;;;;18.70;16.80;;;;;;;20.51;98.06;101128.41;5076922;28;20054;-65
2023/06/21 02:45:36;;;;;;;17.70;15.95;;;;;;;20.65;96.71;101127.72;5077119;28;20135;-66
2023/06/21 02:48:04;;;;;;;15.95;14.40;;;;;;;20.75;95.91;101131.66;5077582;28;20045;-66
2023/06/21 02:50:29;;;;;;;17.40;15.60;;;;;;;20.87;95.21;101135.88;5056621;28;20032;-66
2023/06/21 02:52:55;;;;;;;16.70;14.93;;;;;;;20.86;95.27;101139.72;5075999;28;20093;-65
2023/06/21 02:55:20;;;;;;;15.57;14.05;;;;;;;20.79;95.90;101130.03;5076289;28;20032;-66
2023/06/21 02:57:46;;;;;;;19.50;14.00;;;;;;;20.82;95.54;101129.53;5077295;28;20543;-65
2023/06/21 03:00:23;;;;;;;16.02;14.07;;;;;;;20.79;95.58;101124.56;5059146;28;20077;-65
2023/06/21 03:02:50;;;;;;;15.13;13.50;;;;;;;20.94;94.72;101130.19;5077557;28;20061;-65
2023/06/21 03:05:16;;;;;;;15.27;13.32;;;;;;;20.71;95.68;101125.88;5077442;28;20487;-66
2023/06/21 03:07:43;;;;;;;15.57;13.95;;;;;;;20.57;96.66;101119.19;5077125;28;20036;-66
2023/06/21 03:10:14;;;;;;;15.48;13.25;;;;;;;20.53;97.13;101121.63;5077027;28;20429;-66
2023/06/21 03:12:43;;;;;;;14.43;12.95;;;;;;;20.36;97.40;101094.34;5075856;28;20024;-66
2023/06/21 03:15:10;;;;;;;14.88;13.32;;;;;;;20.45;97.33;101113.84;5077481;28;20473;-66
2023/06/21 03:17:39;;;;;;;16.42;13.15;;;;;;;20.46;97.23;101099.06;5074670;28;20035;-66
2023/06/21 03:20:11;;;;;;;14.48;12.93;;;;;;;20.62;96.49;101111.84;5077378;28;20444;-66
2023/06/21 03:22:37;;;;;;;14.38;13.02;;;;;;;20.73;95.58;101114.66;5076984;28;20070;-65
2023/06/21 03:25:03;;;;;;;14.70;12.73;;;;;;;20.51;96.13;101099.16;5077813;28;20028;-66
2023/06/21 03:27:28;;;;;;;13.07;11.77;;;;;;;20.63;95.89;101109.97;5076959;28;20399;-66
2023/06/21 03:29:54;;;;;;;13.05;11.63;;;;;;;20.76;95.28;101112.28;5076860;28;20028;-66
2023/06/21 03:32:19;;;;;;;11.38;10.18;;;;;;;20.71;94.80;101111.38;5077012;28;20186;-67
2023/06/21 03:34:45;;;;;;;11.40;10.18;;;;;;;20.77;94.35;101107.63;5076411;28;20479;-66
2023/06/21 03:37:11;;;;;;;11.80;10.60;;;;;;;20.83;94.03;101101.13;5075580;28;20028;-66
2023/06/21 03:39:36;;;;;;;10.77;9.68;;;;;;;20.86;93.68;101106.88;5074959;28;20028;-66
2023/06/21 03:42:02;;;;;;;11.20;9.85;;;;;;;20.80;93.56;101093.44;5074569;28;20025;-66
2023/06/21 03:44:27;;;;;;;9.70;8.80;;;;;;;20.88;93.09;101103.88;5074647;28;20032;-66
2023/06/21 03:46:53;;;;;;;12.38;8.82;;;;;;;21.00;92.28;101098.25;5072048;28;20102;-65
2023/06/21 03:49:21;;;;;;;9.73;8.77;;;;;;;21.09;91.45;101105.72;5057796;28;20434;-65
2023/06/21 03:51:47;;;;;;;10.02;8.57;;;;;;;21.23;90.94;101099.78;5074222;28;20089;-65
2023/06/21 03:54:13;;;;;;;10.73;8.25;;;;;;;21.43;89.91;101104.59;5076188;28;20040;-65
2023/06/21 03:56:38;;;;;;;9.60;7.40;;;;;;;21.56;89.06;101102.22;5073639;28;20058;-65
2023/06/21 03:59:04;;;;;;;8.73;7.47;;;;;;;21.71;88.17;101106.94;5075243;28;20066;-66
2023/06/21 04:01:29;;;;;;;9.05;7.75;;;;;;;21.79;87.55;101102.88;5073579;28;20024;-65
2023/06/21 04:03:56;;;;;;;9.15;7.00;;;;;;;21.85;86.98;101098.22;5072573;28;20479;-66
2023/06/21 04:06:21;;;;;;;11.00;6.60;;;;;;;21.90;86.32;101098.28;5073026;28;20122;-67
2023/06/21 04:08:47;;;;;;;11.55;7.32;;;;;;;21.90;85.54;101085.38;5072850;28;20205;-66
2023/06/21 04:11:14;;;;;;;9.88;6.82;;;;;;;21.97;84.91;101087.88;5072670;28;20036;-66
2023/06/21 04:13:39;;;;;;;9.05;6.65;;;;;;;22.10;83.81;101084.63;5074021;28;20039;-67
2023/06/21 04:16:05;;;;;;;8.35;6.63;;;;;;;21.95;83.17;101068.13;5059185;28;20383;-67
2023/06/21 04:18:31;;;;;;;6.90;6.13;;;;;;;22.22;82.30;101076.22;5056056;28;20086;-66
2023/06/21 04:20:56;;;;;;;7.35;6.53;;;;;;;22.36;81.84;101080.09;5052578;28;20031;-67
2023/06/21 04:23:21;;;;;;;6.80;6.20;;;;;;;22.63;80.29;101074.34;5053984;28;20029;-66
2023/06/21 04:25:47;;;;;;;11.75;6.85;;;;;;;22.67;79.25;101069.97;5054894;28;20104;-66
2023/06/21 04:28:12;;;;;;;8.57;6.43;;;;;;;23.08;77.60;101058.16;5055465;28;20032;-66
2023/06/21 04:30:38;;;;;;;7.30;6.18;;;;;;;23.32;75.95;101056.50;5055697;28;20070;-67
2023/06/21 04:33:04;;;;;;;6.40;5.70;;;;;;;23.38;74.57;101055.38;5056177;28;20055;-67
2023/06/21 04:35:29;;;;;;;6.47;5.72;;;;;;;23.67;73.19;101055.56;5055497;28;20032;-67
2023/06/21 04:37:54;;;;;;;5.95;5.18;;;;;;;23.63;73.08;101039.91;5035205;28;20036;-66
2023/06/21 04:40:21;;;;;;;6.72;5.60;;;;;;;23.86;72.09;101052.22;5052365;28;20110;-66
2023/06/21 04:42:47;;;;;;;5.60;5.10;;;;;;;;;;5050137;28;20516;-66
2023/06/21 04:45:16;;;;;;;5.88;5.28;;;;;;;23.68;71.45;101040.75;5053385;28;20102;-67
2023/06/21 04:47:42;;;;;;;7.65;4.93;;;;;;;24.04;69.72;101039.75;5054955;28;20029;-67
2023/06/21 04:50:10;;;;;;;9.05;5.05;;;;;;;24.10;68.71;101050.41;5052634;28;20021;-67
2023/06/21 04:52:37;;;;;;;8.27;5.35;;;;;;;24.41;67.22;101046.72;5052254;28;20029;-67
2023/06/21 04:55:05;;;;;;;5.93;4.85;;;;;;;24.54;66.33;101048.81;5052187;28;20382;-69
2023/06/21 04:57:31;;;;;;;7.55;4.80;;;;;;;25.02;65.18;101052.50;5055995;28;20075;-68
2023/06/21 04:59:56;;;;;;;7.97;4.90;;;;;;;25.07;64.55;101049.72;5057135;28;20028;-69
2023/06/21 05:02:22;;;;;;;6.80;5.10;;;;;;;24.85;64.73;101047.44;5038332;28;20068;-69
2023/06/21 05:04:47;;;;;;;8.88;5.15;;;;;;;24.43;65.26;101047.22;5053412;28;20036;-67
2023/06/21 05:07:13;;;;;;;8.38;4.70;;;;;;;24.45;65.60;101034.84;5054281;28;20036;-67
2023/06/21 05:09:38;;;;;;;6.40;4.97;;;;;;;24.57;65.28;101046.31;5055144;28;20484;-67
2023/06/21 05:12:07;;;;;;;7.93;4.82;;;;;;;24.64;64.75;101039.66;5053156;28;20102;-67
2023/06/21 05:14:33;;;;;;;8.20;4.93;;;;;;;24.46;65.29;101044.72;5054320;28;20032;-67
2023/06/21 05:16:58;;;;;;;7.18;4.75;;;;;;;24.47;65.12;101042.78;5053993;28;20036;-67
2023/06/21 05:19:24;;;;;;;6.88;4.82;;;;;;;24.06;65.90;101040.28;5054321;28;20129;-67
2023/06/21 05:21:49;;;;;;;11.70;5.07;;;;;;;24.09;65.79;101028.72;5035599;28;20035;-66
2023/06/21 05:24:14;;;;;;;8.75;5.20;;;;;;;24.23;65.89;101029.72;5018128;28;20128;-67
2023/06/21 05:26:44;;;;;;;6.35;5.25;;;;;;;23.99;66.40;101029.59;5053967;28;20025;-67
2023/06/21 05:29:12;;;;;;;7.22;5.15;;;;;;;24.00;66.45;101033.16;5056691;28;20029;-67
2023/06/21 05:31:41;;;;;;;6.78;4.80;;;;;;;23.92;66.68;101029.91;5055471;28;20029;-67
2023/06/21 05:34:06;;;;;;;8.02;4.90;;;;;;;24.10;66.26;101035.84;5055776;28;20101;-67
2023/06/21 05:36:32;;;;;;;5.32;4.80;;;;;;;24.00;66.40;101027.69;5054325;28;20057;-67
2023/06/21 05:38:57;;;;;;;6.00;5.40;;;;;;;24.15;66.17;101027.59;5054485;28;20047;-67
2023/06/21 05:41:23;;;;;;;5.80;5.30;;;;;;;24.23;65.75;101029.72;5059200;28;20042;-67
2023/06/21 05:43:48;;;;;;;6.93;5.25;;;;;;;24.17;65.93;101035.53;5059042;28;20021;-67
2023/06/21 05:46:14;;;;;;;6.00;5.40;;;;;;;24.16;66.13;101034.72;5059051;28;20068;-66
2023/06/21 05:48:39;;;;;;;6.03;5.47;;;;;;;24.16;66.20;101040.22;5059281;28;20033;-67
2023/06/21 05:51:04;;;;;;;6.65;5.30;;;;;;;24.38;65.83;101035.13;5059907;28;20484;-66
2023/06/21 05:53:31;;;;;;;8.52;5.32;;;;;;;24.59;65.28;101041.31;5057732;28;20025;-67
2023/06/21 05:55:56;;;;;;;6.97;5.25;;;;;;;24.70;65.12;101038.47;5059230;28;20092;-66
2023/06/21 05:58:22;;;;;;;7.93;5.30;;;;;;;24.74;65.00;101037.63;5057818;28;20092;-68
2023/06/21 06:00:48;;;;;;;10.25;5.60;;;;;;;24.54;64.62;100996.53;5057809;28;20056;-67
2023/06/21 06:03:13;;;;;;;7.57;5.63;;;;;;;24.72;64.89;101028.03;5057841;28;20107;-67
2023/06/21 06:05:39;;;;;;;13.48;5.25;;;;;;;24.59;65.00;101032.25;5059590;28;20032;-67
2023/06/21 06:08:04;;;;;;;7.13;5.72;;;;;;;24.76;64.71;101021.63;5041225;28;20045;-67
2023/06/21 06:10:30;;;;;;;9.52;5.25;;;;;;;24.81;64.59;101024.34;5059395;28;20025;-68
2023/06/21 06:12:55;;;;;;;9.60;5.20;;;;;;;24.69;65.02;101029.41;5059016;28;20092;-67
2023/06/21 06:15:20;;;;;;;7.28;5.30;;;;;;;24.74;64.41;101037.63;5058328;28;20028;-68
2023/06/21 06:17:46;;;;;;;9.25;5.47;;;;;;;24.96;64.17;101036.31;5058407;28;20036;-67
2023/06/21 06:20:12;;;;;;;9.32;5.28;;;;;;;25.06;63.75;101030.72;5058359;28;20033;-67
2023/06/21 06:22:39;;;;;;;6.10;5.43;;;;;;;25.03;63.54;101014.78;5058162;28;20037;-67
2023/06/21 06:25:05;;;;;;;5.93;5.32;;;;;;;25.28;62.96;101036.56;5059629;28;20079;-67
2023/06/21 06:27:31;;;;;;;12.18;5.57;;;;;;;25.39;62.95;101039.22;5058679;28;20128;-67
2023/06/21 06:29:57;;;;;;;11.15;5.40;;;;;;;25.27;63.12;101029.44;5060342;28;20084;-66
2023/06/21 06:32:22;;;;;;;8.38;5.50;;;;;;;25.44;63.17;101041.94;5060493;28;20112;-67
2023/06/21 06:34:48;;;;;;;11.20;5.65;;;;;;;25.22;63.36;101031.41;5058133;28;20125;-67
2023/06/21 06:37:13;;;;;;;12.98;5.88;;;;;;;25.36;63.02;101034.28;5057629;28;20028;-67
2023/06/21 06:39:39;;;;;;;8.27;5.65;;;;;;;25.08;63.84;101028.50;5059707;28;20067;-67
2023/06/21 06:42:05;;;;;;;10.50;5.75;;;;;;;25.27;63.10;101001.91;5058687;28;20037;-67
2023/06/21 06:44:31;;;;;;;12.05;5.53;;;;;;;25.29;63.37;101024.44;5058806;28;20040;-67
2023/06/21 06:46:57;;;;;;;11.77;5.53;;;;;;;25.50;63.29;101026.97;5058527;28;20053;-68
2023/06/21 06:49:22;;;;;;;11.02;6.10;;;;;;;25.56;62.96;101017.50;5057842;28;20032;-67
2023/06/21 06:51:47;;;;;;;14.60;5.95;;;;;;;25.58;62.88;101008.97;5057890;28;20031;-67
2023/06/21 06:54:13;;;;;;;15.80;6.13;;;;;;;25.61;63.30;101014.72;5025604;28;20039;-67
2023/06/21 06:56:39;;;;;;;12.35;6.05;;;;;;;25.69;63.23;101011.28;5058145;28;20083;-67
2023/06/21 06:59:04;;;;;;;8.00;6.00;;;;;;;25.72;63.24;101004.38;5056970;28;20037;-68
2023/06/21 07:01:30;;;;;;;10.13;6.30;;;;;;;25.81;62.60;101002.63;5041330;28;20021;-70
2023/06/21 07:03:56;;;;;;;11.88;5.90;;;;;;;25.90;62.74;101005.56;5057726;28;20033;-67
2023/06/21 07:06:21;;;;;;;11.32;5.85;;;;;;;26.00;62.50;101010.91;5057920;28;20033;-67
2023/06/21 07:08:47;;;;;;;16.67;5.82;;;;;;;25.94;62.26;100999.13;5056794;28;20044;-67
2023/06/21 07:11:12;;;;;;;9.45;5.65;;;;;;;25.89;62.43;100996.44;5054711;28;20047;-66
2023/06/21 07:13:38;;;;;;;8.93;5.60;;;;;;;25.51;63.55;101001.88;5056371;28;20052;-67
2023/06/21 07:16:03;;;;;;;10.77;5.47;;;;;;;25.72;62.78;101005.19;5039643;28;20029;-67
2023/06/21 07:18:29;;;;;;;10.27;5.60;;;;;;;25.68;62.95;101009.66;5058264;28;20384;-67
2023/06/21 07:20:54;;;;;;;10.20;5.82;;;;;;;25.69;63.19;101003.00;5058121;28;20032;-67
2023/06/21 07:23:20;;;;;;;7.18;5.70;;;;;;;25.67;63.13;100988.72;5058413;28;20087;-67
2023/06/21 07:25:45;;;;;;;7.00;5.75;;;;;;;25.49;63.56;100998.59;5058968;28;20033;-67
2023/06/21 07:28:11;;;;;;;9.18;5.95;;;;;;;25.34;64.06;101004.28;5061478;28;20040;-67
2023/06/21 07:30:37;;;;;;;6.90;5.85;;;;;;;25.44;63.86;101003.34;5060775;28;20043;-67
2023/06/21 07:33:04;;;;;;;8.25;5.57;;;;;;;25.42;63.53;101003.63;5059553;28;20033;-69
2023/06/21 07:35:30;;;;;;;6.22;5.63;;;;;;;25.44;63.74;101012.44;5059143;28;20078;-67
2023/06/21 07:37:55;;;;;;;6.65;5.72;;;;;;;25.43;64.13;101008.06;5058685;28;20080;-67
2023/06/21 07:40:21;;;;;;;6.90;5.45;;;;;;;25.40;64.06;101011.38;5056634;28;20120;-68
2023/06/21 07:42:46;;;;;;;9.18;6.25;;;;;;;25.10;67.59;101009.78;5057216;28;20093;-68
2023/06/21 07:45:12;;;;;;;8.23;6.60;;;;;;;24.97;69.49;101011.28;5058059;28;20029;-68
2023/06/21 07:47:38;;;;;;;10.65;6.63;;;;;;;24.81;71.36;101005.09;5058083;28;20059;-67
2023/06/21 07:50:05;;;;;;;13.05;7.38;;;;;;;24.65;73.64;101008.28;5024065;28;20021;-67
2023/06/21 07:52:30;;;;;;;11.27;6.88;;;;;;;24.57;75.31;101010.53;5056371;28;20036;-68
2023/06/21 07:54:56;;;;;;;15.98;7.50;;;;;;;24.51;76.82;101006.19;5056443;28;20025;-67
2023/06/21 07:57:21;;;;;;;18.98;7.65;;;;;;;24.48;77.76;101009.50;5056827;28;20116;-67
2023/06/21 07:59:47;;;;;;;9.35;7.55;;;;;;;24.41;79.08;101008.22;5056240;28;20120;-67
2023/06/21 08:02:18;;;;;;;10.27;8.02;;;;;;;24.36;80.07;101009.84;5056786;28;20074;-68
2023/06/21 08:04:46;;;;;;;9.75;7.28;;;;;;;24.09;80.75;100985.56;5056335;28;20060;-67
2023/06/21 08:07:13;;;;;;;9.38;7.80;;;;;;;24.05;81.75;100994.66;5057421;28;20040;-68
2023/06/21 08:09:39;;;;;;;8.10;6.97;;;;;;;23.97;82.03;101006.25;5056569;28;20049;-67
2023/06/21 08:12:05;;;;;;;9.52;7.55;;;;;;;23.91;82.38;101005.47;5055142;28;20450;-67
2023/06/21 08:14:30;;;;;;;8.23;7.43;;;;;;;23.87;82.61;101010.72;5053243;28;20446;-69
2023/06/21 08:16:55;;;;;;;7.57;6.88;;;;;;;23.85;82.66;101012.09;5040266;28;20052;-68
2023/06/21 08:19:21;;;;;;;8.43;7.63;;;;;;;23.83;82.76;101015.13;5056217;28;20029;-68
2023/06/21 08:21:46;;;;;;;7.97;7.13;;;;;;;23.71;83.27;100991.81;5057400;28;20041;-68
2023/06/21 08:24:12;;;;;;;8.32;7.30;;;;;;;23.71;84.16;101014.66;5056170;28;20027;-68
2023/06/21 08:26:38;;;;;;;7.80;7.10;;;;;;;23.66;84.91;101014.63;5052069;28;20025;-68
2023/06/21 08:29:03;;;;;;;8.55;7.75;;;;;;;23.64;85.63;101012.19;5056215;28;20399;-68
2023/06/21 08:31:28;;;;;;;8.65;7.85;;;;;;;23.63;86.23;101016.00;5057438;28;20025;-67
2023/06/21 08:33:54;;;;;;;8.23;7.43;;;;;;;23.56;86.95;101018.25;5057269;28;20039;-68
2023/06/21 08:36:20;;;;;;;8.32;7.45;;;;;;;23.49;87.41;101020.47;5054088;28;20488;-68
2023/06/21 08:38:45;;;;;;;9.05;8.18;;;;;;;23.41;87.98;101016.38;5055335;28;20372;-68
2023/06/21 08:41:12;;;;;;;11.20;7.90;;;;;;;23.34;88.36;101024.06;5054975;28;20405;-67
2023/06/21 08:43:37;;;;;;;9.95;8.30;;;;;;;23.18;89.15;101022.50;5055277;28;20032;-67
2023/06/21 08:46:08;;;;;;;11.07;7.95;;;;;;;23.17;89.71;101023.56;5056697;28;20049;-68
2023/06/21 08:48:35;;;;;;;9.88;8.90;;;;;;;23.08;90.19;101030.72;5057349;28;20090;-67
2023/06/21 08:51:04;;;;;;;9.48;8.48;;;;;;;23.00;91.12;101034.88;5058732;28;20503;-67
2023/06/21 08:53:42;;;;;;;10.73;9.25;;;;;;;22.96;91.65;101034.59;5060328;28;20056;-68
2023/06/21 08:56:11;;;;;;;14.02;9.07;;;;;;;22.88;92.65;101035.13;5057127;28;20040;-68
2023/06/21 08:58:45;;;;;;;17.75;9.70;;;;;;;22.76;93.87;101034.59;5056423;28;20501;-68
2023/06/21 09:01:12;;;;;;;10.23;9.23;;;;;;;22.71;94.48;101031.84;5056492;28;20044;-68
2023/06/21 09:03:56;;;;;;;11.63;10.00;;;;;;;22.76;95.14;101037.31;5056507;28;20033;-68
2023/06/21 09:06:24;;;;;;;11.18;9.95;;;;;;;22.68;95.32;101027.75;5056170;28;20025;-68
2023/06/21 09:08:51;;;;;;;11.43;10.25;;;;;;;22.64;95.71;101039.50;5056071;28;20412;-68
2023/06/21 09:11:18;;;;;;;11.80;10.18;;;;;;;22.55;96.85;101038.41;5056559;28;20310;-68
2023/06/21 09:13:44;;;;;;;11.25;10.02;;;;;;;22.42;98.09;101035.13;5057322;28;20426;-68
2023/06/21 09:16:10;;;;;;;13.80;10.45;;;;;;;22.57;97.43;101044.44;5060431;28;20110;-68
2023/06/21 09:18:39;;;;;;;12.68;9.95;;;;;;;22.56;97.57;101040.91;5060250;28;20029;-68
2023/06/21 09:21:06;;;;;;;11.15;10.05;;;;;;;22.55;97.86;101050.22;5060616;28;20115;-68
2023/06/21 09:23:32;;;;;;;12.68;10.48;;;;;;;22.51;98.32;101046.34;5041348;28;20095;-69
2023/06/21 09:25:57;;;;;;;13.45;10.75;;;;;;;22.51;99.06;101052.66;5057391;28;20040;-69
2023/06/21 09:28:23;;;;;;;12.30;10.57;;;;;;;22.50;99.38;101059.25;5057416;28;20544;-69
2023/06/21 09:30:49;;;;;;;11.77;10.68;;;;;;;22.50;99.81;101051.03;5062674;28;20029;-69
2023/06/21 09:33:15;;;;;;;12.45;10.95;;;;;;;22.56;99.90;101051.03;5061337;28;20500;-69
2023/06/21 09:35:42;;;;;;;13.90;11.95;;;;;;;22.55;100.00;101050.22;5060264;28;20483;-68
2023/06/21 09:38:20;;;;;;;12.70;10.63;;;;;;;22.62;100.00;101052.69;5058882;28;20033;-69
2023/06/21 09:40:46;;;;;;;12.35;10.93;;;;;;;22.62;100.00;101053.50;5058911;28;20021;-69
2023/06/21 09:43:11;;;;;;;12.95;11.63;;;;;;;22.58;100.00;101054.31;5041646;28;20074;-68
2023/06/21 09:45:37;;;;;;;13.40;12.00;;;;;;;22.55;100.00;101046.63;5059533;28;20069;-68
2023/06/21 09:48:02;;;;;;;12.48;11.18;;;;;;;22.51;100.00;101049.09;5059896;28;20507;-68
2023/06/21 09:50:32;;;;;;;13.00;11.80;;;;;;;22.54;100.00;101042.25;5058050;28;20024;-68
2023/06/21 09:52:58;;;;;;;13.50;11.82;;;;;;;22.56;100.00;101040.06;5060023;28;20084;-68
2023/06/21 09:55:24;;;;;;;13.20;11.75;;;;;;;22.58;100.00;101041.44;5041706;28;20053;-69
2023/06/21 09:57:52;;;;;;;12.25;10.95;;;;;;;22.59;100.00;101039.53;5058807;28;20398;-68
2023/06/21 10:00:18;;;;;;;14.30;12.30;;;;;;;22.41;100.00;101008.78;5058470;28;20098;-68
2023/06/21 10:02:43;;;;;;;13.38;11.82;;;;;;;22.53;100.00;101033.22;5059408;28;20491;-68
2023/06/21 10:05:19;;;;;;;12.88;11.57;;;;;;;22.52;100.00;101028.84;5058339;28;20043;-68
2023/06/21 10:07:46;;;;;;;12.52;11.43;;;;;;;22.42;100.00;101029.66;5058125;28;20473;-69
2023/06/21 10:10:12;;;;;;;12.70;11.50;;;;;;;22.40;100.00;101023.59;5059460;28;20031;-68
2023/06/21 10:12:52;;;;;;;13.20;11.90;;;;;;;22.43;100.00;101023.06;5057924;28;20033;-68
2023/06/21 10:15:18;;;;;;;18.58;12.27;;;;;;;22.36;100.00;101000.56;5058324;28;20066;-68
2023/06/21 10:17:47;;;;;;;13.30;11.98;;;;;;;22.65;100.00;101011.84;5058184;28;20036;-68
2023/06/21 10:20:14;;;;;;;13.50;12.20;;;;;;;22.92;100.00;101010.72;5059492;28;20134;-68
2023/06/21 10:22:43;;;;;;;15.10;12.32;;;;;;;23.10;100.00;101017.56;5059328;28;20096;-68
2023/06/21 10:25:10;;;;;;;14.98;11.77;;;;;;;23.35;100.00;101011.19;5057455;28;20020;-69
2023/06/21 10:27:36;;;;;;;15.07;12.25;;;;;;;23.30;100.00;101000.22;5041439;28;20127;-68
2023/06/21 10:30:04;;;;;;;15.15;13.65;;;;;;;23.34;100.00;101013.09;5059648;28;20029;-68
2023/06/21 10:32:34;;;;;;;14.68;13.23;;;;;;;23.43;100.00;101011.41;5059288;28;20067;-68
2023/06/21 10:35:16;;;;;;;15.10;13.60;;;;;;;23.61;100.00;101022.91;5059761;28;20108;-68
2023/06/21 10:37:54;;;;;;;14.93;13.35;;;;;;;23.72;100.00;101021.78;5059833;28;20395;-69
2023/06/21 10:40:21;;;;;;;14.10;12.77;;;;;;;23.63;100.00;101023.44;5057351;28;20060;-68
2023/06/21 10:42:47;;;;;;;14.93;13.20;;;;;;;23.72;100.00;101021.78;5056295;28;20032;-68
2023/06/21 10:45:13;;;;;;;16.33;11.88;;;;;;;23.87;100.00;101018.13;5054706;28;20534;-69
2023/06/21 10:47:40;;;;;;;15.75;12.52;;;;;;;23.94;100.00;101010.41;5058431;28;20539;-68
2023/06/21 10:50:07;;;;;;;17.98;12.80;;;;;;;24.13;100.00;101002.31;5055845;28;20060;-68
2023/06/21 10:52:33;;;;;;;13.00;11.70;;;;;;;24.19;100.00;101011.34;5056733;28;20029;-68
2023/06/21 10:55:00;;;;;;;17.55;12.68;;;;;;;24.21;100.00;101007.22;5056930;28;20025;-68
2023/06/21 10:57:28;;;;;;;13.68;12.27;;;;;;;24.37;99.86;101006.00;5058241;28;20525;-68
2023/06/21 11:00:00;;;;;;;14.15;11.55;;;;;;;24.35;99.52;100971.63;5058709;28;20033;-68
2023/06/21 11:02:27;;;;;;;13.32;12.02;;;;;;;24.63;98.81;100991.22;5058596;28;20097;-68
2023/06/21 11:05:15;;;;;;;13.23;11.85;;;;;;;24.77;98.88;101000.47;5058267;28;20107;-68
2023/06/21 11:07:55;;;;;;;13.77;12.48;;;;;;;24.74;98.54;100999.09;5058911;28;20073;-68
2023/06/21 11:10:29;;;;;;;13.80;12.48;;;;;;;24.83;98.81;100991.88;5058065;28;20445;-68
2023/06/21 11:12:56;;;;;;;13.63;12.30;;;;;;;24.85;98.93;100997.88;5057868;28;20028;-69
2023/06/21 11:15:24;;;;;;;13.90;12.38;;;;;;;24.85;99.00;100986.88;5058516;28;20028;-68